createdAt,value
2023-01-03T00:01:32.001Z,5.10
2023-01-03T00:05:13.914Z,5.10
2023-01-03T00:08:57.457Z,5.10
2023-01-03T00:12:39.510Z,5.10
2023-01-03T00:16:21.632Z,5.10
2023-01-03T00:20:03.804Z,5.10
2023-01-03T00:23:45.916Z,5.20
2023-01-03T00:27:27.917Z,5.20
2023-01-03T00:31:12.721Z,5.20
2023-01-03T00:34:56.845Z,5.20
2023-01-03T00:38:43.248Z,5.20
2023-01-03T00:42:25.222Z,5.20
2023-01-03T00:46:08.362Z,5.20
2023-01-03T00:49:50.366Z,5.10
2023-01-03T00:53:32.329Z,5.00
2023-01-03T00:57:14.421Z,5.00
2023-01-03T01:00:56.558Z,4.90
2023-01-03T01:04:38.583Z,4.80
2023-01-03T01:08:20.525Z,4.70
2023-01-03T01:12:05.266Z,4.60
2023-01-03T01:15:47.234Z,4.60
2023-01-03T01:19:32.537Z,4.70
2023-01-03T01:23:14.528Z,4.60
2023-01-03T01:26:56.759Z,4.70
2023-01-03T01:30:39.130Z,4.80
2023-01-03T01:34:21.358Z,4.90
2023-01-03T01:38:03.350Z,4.90
2023-01-03T01:42:05.287Z,4.90
2023-01-03T01:45:48.427Z,5.00
2023-01-03T01:49:30.819Z,5.00
2023-01-03T01:53:22.654Z,5.00
2023-01-03T01:57:04.619Z,5.10
2023-01-03T02:00:47.788Z,5.10
2023-01-03T02:04:34.153Z,5.20
2023-01-03T02:08:16.504Z,5.20
2023-01-03T02:12:25.760Z,5.20
2023-01-03T02:16:07.742Z,5.20
2023-01-03T02:19:58.947Z,5.30
2023-01-03T02:24:14.756Z,5.30
2023-01-03T02:28:14.960Z,5.30
2023-01-03T02:32:12.059Z,5.30
2023-01-03T02:36:11.759Z,5.20
2023-01-03T02:40:37.178Z,5.10
2023-01-03T02:44:23.684Z,5.00
2023-01-03T02:48:23.242Z,5.00
2023-01-03T02:52:10.628Z,5.00
2023-01-03T02:55:55.682Z,4.90
2023-01-03T02:59:52.401Z,4.70
2023-01-03T03:03:39.001Z,4.60
2023-01-03T03:07:26.169Z,4.50
2023-01-03T03:11:26.515Z,4.50
2023-01-03T03:15:12.175Z,4.50
2023-01-03T03:18:59.111Z,4.40
2023-01-03T03:23:01.692Z,4.40
2023-01-03T03:26:45.087Z,4.40
2023-01-03T03:30:30.707Z,4.30
2023-01-03T03:34:15.579Z,4.30
2023-01-03T03:38:00.900Z,4.40
2023-01-03T03:42:07.766Z,4.40
2023-01-03T03:46:23.700Z,4.40
2023-01-03T03:50:24.933Z,4.40
2023-01-03T03:54:11.331Z,4.40
2023-01-03T03:58:00.131Z,4.50
2023-01-03T04:01:43.378Z,4.50
2023-01-03T04:05:29.600Z,4.50
2023-01-03T04:09:11.944Z,4.60
2023-01-03T04:12:53.979Z,4.60
2023-01-03T04:16:37.750Z,4.70
2023-01-03T04:20:20.047Z,4.70
2023-01-03T04:24:02.072Z,4.90
2023-01-03T04:27:43.971Z,5.00
2023-01-03T04:31:26.038Z,5.00
2023-01-03T04:35:08.591Z,5.20
2023-01-03T04:38:50.520Z,5.40
2023-01-03T04:42:50.955Z,5.50
2023-01-03T04:46:35.703Z,5.70
2023-01-03T04:50:17.653Z,6.00
2023-01-03T04:54:00.230Z,6.20
2023-01-03T04:57:42.231Z,6.50
2023-01-03T05:01:24.509Z,6.70
2023-01-03T05:05:07.484Z,6.80
2023-01-03T05:08:50.958Z,7.10
2023-01-03T05:12:33.045Z,7.20
2023-01-03T05:16:15.723Z,7.30
2023-01-03T05:20:16.089Z,7.40
2023-01-03T05:24:17.049Z,7.50
2023-01-03T05:28:00.689Z,7.50
2023-01-03T05:31:42.755Z,7.50
2023-01-03T05:35:24.866Z,7.60
2023-01-03T05:39:08.229Z,7.70
2023-01-03T05:42:50.413Z,7.80
2023-01-03T05:46:33.273Z,7.90
2023-01-03T05:50:15.453Z,7.90
2023-01-03T05:53:57.995Z,7.90
2023-01-03T05:57:40.161Z,7.90
2023-01-03T06:01:22.254Z,8.00
2023-01-03T06:05:05.122Z,8.00
2023-01-03T06:08:47.127Z,8.00
2023-01-03T06:12:29.727Z,8.10
2023-01-03T06:16:35.869Z,8.10
2023-01-03T06:20:20.370Z,8.10
2023-01-03T06:24:02.459Z,8.20
2023-01-03T06:27:44.484Z,8.20
2023-01-03T06:31:27.115Z,8.30
2023-01-03T06:35:09.637Z,8.30
2023-01-03T06:38:52.270Z,8.30
2023-01-03T06:42:45.456Z,8.40
2023-01-03T06:46:46.136Z,8.40
2023-01-03T06:50:46.942Z,8.50
2023-01-03T06:54:34.925Z,8.50
2023-01-03T06:58:17.094Z,8.60
2023-01-03T07:01:59.181Z,8.70
2023-01-03T07:05:41.399Z,8.80
2023-01-03T07:09:27.992Z,8.80
2023-01-03T07:13:28.672Z,8.90
2023-01-03T07:17:10.748Z,8.90
2023-01-03T07:20:53.101Z,9.00
2023-01-03T07:24:35.133Z,9.00
2023-01-03T07:28:17.532Z,9.00
2023-01-03T07:31:59.931Z,9.10
2023-01-03T07:35:42.087Z,9.10
2023-01-03T07:39:26.670Z,9.20
2023-01-03T07:43:30.610Z,9.20
2023-01-03T07:47:16.693Z,9.20
2023-01-03T07:50:59.540Z,9.30
2023-01-03T07:54:41.705Z,9.30
2023-01-03T07:58:23.817Z,9.40
2023-01-03T08:02:06.462Z,9.40
2023-01-03T08:05:48.684Z,9.50
2023-01-03T08:09:50.112Z,9.50
2023-01-03T08:13:32.340Z,9.50
2023-01-03T08:17:17.219Z,9.50
2023-01-03T08:21:00.352Z,9.50
2023-01-03T08:24:42.656Z,9.60
2023-01-03T08:28:25.007Z,9.60
2023-01-03T08:32:07.474Z,9.60
2023-01-03T08:36:03.747Z,9.70
2023-01-03T08:40:00.119Z,9.70
2023-01-03T08:43:45.176Z,9.70
2023-01-03T08:47:28.540Z,9.70
2023-01-03T08:51:11.733Z,9.80
2023-01-03T08:54:53.752Z,9.80
2023-01-03T08:58:37.266Z,9.80
2023-01-03T09:02:19.781Z,9.80
2023-01-03T09:06:03.500Z,9.90
2023-01-03T09:09:45.572Z,9.90
2023-01-03T09:13:27.784Z,9.90
2023-01-03T09:17:13.413Z,10.00
2023-01-03T09:20:55.786Z,10.00
2023-01-03T09:24:42.346Z,10.00
2023-01-03T09:28:27.186Z,10.00
2023-01-03T09:36:11.677Z,10.00
2023-01-03T09:39:54.911Z,10.00
2023-01-03T09:43:41.491Z,10.00
2023-01-03T09:47:26.860Z,10.10
2023-01-03T09:51:36.595Z,10.10
2023-01-03T09:56:13.590Z,10.10
2023-01-03T10:00:14.560Z,10.10
2023-01-03T10:04:35.058Z,10.20
2023-01-03T10:13:01.772Z,10.30
2023-01-03T10:17:23.002Z,10.30
2023-01-03T10:22:12.123Z,10.30
2023-01-03T10:25:57.276Z,10.30
2023-01-03T10:33:55.090Z,10.40
2023-01-03T10:42:08.402Z,10.40
2023-01-03T10:50:49.410Z,10.40
2023-01-03T10:55:00.818Z,10.40
2023-01-03T10:58:47.558Z,10.40
2023-01-03T11:07:38.666Z,10.40
2023-01-03T11:11:45.099Z,10.40
2023-01-03T11:15:41.406Z,10.40
2023-01-03T11:19:33.440Z,10.40
2023-01-03T11:23:44.082Z,10.50
2023-01-03T11:28:15.591Z,10.40
2023-01-03T11:32:28.030Z,10.50
2023-01-03T11:36:48.861Z,10.50
2023-01-03T11:45:55.785Z,10.80
2023-01-03T11:54:27.052Z,10.90
2023-01-03T11:58:22.989Z,10.90
2023-01-03T12:02:40.864Z,11.00
2023-01-03T12:06:39.001Z,11.00
2023-01-03T12:10:52.541Z,11.00
2023-01-03T12:14:44.023Z,11.10
2023-01-03T12:19:20.213Z,11.10
2023-01-03T12:23:24.631Z,11.10
2023-01-03T12:27:31.343Z,11.10
2023-01-03T12:31:32.603Z,11.10
2023-01-03T12:35:41.508Z,11.10
2023-01-03T12:39:55.520Z,11.10
2023-01-03T12:43:55.825Z,11.10
2023-01-03T12:47:49.273Z,11.00
2023-01-03T12:51:35.429Z,11.10
2023-01-03T12:55:25.097Z,11.10
2023-01-03T12:59:40.638Z,11.10
2023-01-03T13:03:40.783Z,11.10
2023-01-03T13:07:30.738Z,11.10
2023-01-03T13:11:38.334Z,11.10
2023-01-03T13:15:37.767Z,11.10
2023-01-03T13:19:24.210Z,11.10
2023-01-03T13:23:36.369Z,11.00
2023-01-03T13:27:18.814Z,11.10
2023-01-03T13:31:19.055Z,11.00
2023-01-03T13:35:01.165Z,11.00
2023-01-03T13:38:47.574Z,11.00
2023-01-03T13:42:31.720Z,11.00
2023-01-03T13:46:25.071Z,11.00
2023-01-03T13:50:19.271Z,11.00
2023-01-03T13:54:13.590Z,11.00
2023-01-03T13:57:57.227Z,11.00
2023-01-03T14:01:57.937Z,11.00
2023-01-03T14:05:56.560Z,11.00
2023-01-03T14:10:06.944Z,11.00
2023-01-03T14:13:56.409Z,11.00
2023-01-03T14:17:41.707Z,11.00
2023-01-03T14:21:28.171Z,11.10
2023-01-03T14:25:42.801Z,11.10
2023-01-03T14:29:27.132Z,11.10
2023-01-03T14:33:23.432Z,11.10
2023-01-03T14:37:20.539Z,11.10
2023-01-03T14:41:03.674Z,11.10
2023-01-03T14:45:22.941Z,11.10
2023-01-03T14:49:25.709Z,11.00
2023-01-03T14:53:16.995Z,11.00
2023-01-03T14:57:02.525Z,11.10
2023-01-03T15:00:54.528Z,11.00
2023-01-03T15:08:49.493Z,11.10
2023-01-03T15:12:36.258Z,11.10
2023-01-03T15:16:37.102Z,11.10
2023-01-03T15:20:27.579Z,11.10
2023-01-03T15:24:20.895Z,11.10
2023-01-03T15:28:32.919Z,11.10
2023-01-03T15:32:19.826Z,11.20
2023-01-03T15:36:20.008Z,11.20
2023-01-03T15:40:07.992Z,11.20
2023-01-03T15:43:58.181Z,11.20
2023-01-03T15:47:44.987Z,11.20
2023-01-03T15:51:39.062Z,11.20
2023-01-03T15:55:24.815Z,11.20
2023-01-03T15:59:25.417Z,11.30
2023-01-03T16:03:34.301Z,11.20
2023-01-03T16:07:25.373Z,11.30
2023-01-03T16:11:31.389Z,11.30
2023-01-03T16:19:45.641Z,11.30
2023-01-03T16:23:59.899Z,11.40
2023-01-03T16:31:49.174Z,11.40
2023-01-03T16:35:37.236Z,11.40
2023-01-03T16:39:30.631Z,11.40
2023-01-03T16:43:14.000Z,11.40
2023-01-03T16:51:22.415Z,11.50
2023-01-03T16:55:41.955Z,11.50
2023-01-03T17:03:50.168Z,11.50
2023-01-03T17:07:35.865Z,11.50
2023-01-03T17:11:40.755Z,11.60
2023-01-03T17:15:30.744Z,11.60
2023-01-03T17:23:05.275Z,11.60
2023-01-03T17:34:58.076Z,11.70
2023-01-03T17:39:09.648Z,11.70
2023-01-03T17:47:23.422Z,11.80
2023-01-03T17:51:16.563Z,11.80
2023-01-03T17:55:32.475Z,11.80
2023-01-03T17:59:26.546Z,11.90
2023-01-03T18:03:13.467Z,11.90
2023-01-03T18:11:04.047Z,12.00
2023-01-03T18:14:49.071Z,12.00
2023-01-03T18:18:33.238Z,12.00
2023-01-03T18:22:17.757Z,12.00
2023-01-03T18:26:16.261Z,12.10
2023-01-03T18:30:04.638Z,12.00
2023-01-03T18:33:53.355Z,12.10
2023-01-03T18:41:34.869Z,12.10
2023-01-03T18:45:18.105Z,12.10
2023-01-03T18:49:02.006Z,12.20
2023-01-03T18:53:00.989Z,12.20
2023-01-03T19:00:56.316Z,12.20
2023-01-03T19:04:42.949Z,12.30
2023-01-03T19:08:38.608Z,12.20
2023-01-03T19:12:24.254Z,12.30
2023-01-03T19:16:13.944Z,12.30
2023-01-03T19:20:06.283Z,12.30
2023-01-03T19:24:01.237Z,12.40
2023-01-03T19:27:50.332Z,12.30
2023-01-03T19:31:47.160Z,12.40
2023-01-03T19:35:34.125Z,12.40
2023-01-03T19:39:20.952Z,12.40
2023-01-03T19:43:07.906Z,12.40
2023-01-03T19:46:51.291Z,12.40
2023-01-03T19:50:35.422Z,12.40
2023-01-03T19:54:17.904Z,12.40
2023-01-03T19:58:06.812Z,12.40
2023-01-03T20:02:22.653Z,12.50
2023-01-03T20:05:51.418Z,12.40
2023-01-03T20:09:34.116Z,12.50
2023-01-03T20:13:19.914Z,12.50
2023-01-03T20:17:01.957Z,12.50
2023-01-03T20:20:44.782Z,12.50
2023-01-03T20:24:33.568Z,12.50
2023-01-03T20:28:29.541Z,12.50
2023-01-03T20:32:11.907Z,12.50
2023-01-03T20:36:14.144Z,12.50
2023-01-03T20:40:01.813Z,12.50
2023-01-03T20:43:44.734Z,12.50
2023-01-03T20:47:26.736Z,12.50
2023-01-03T20:51:12.407Z,12.50
2023-01-03T20:54:57.831Z,12.50
2023-01-03T20:58:40.762Z,12.50
2023-01-03T21:02:23.033Z,12.50
2023-01-03T21:06:18.194Z,12.50
2023-01-03T21:10:00.178Z,12.50
2023-01-03T21:13:42.490Z,12.50
2023-01-03T21:17:24.411Z,12.50
2023-01-03T21:21:08.621Z,12.50
2023-01-03T21:24:57.242Z,12.50
2023-01-03T21:28:39.761Z,12.40
2023-01-03T21:32:21.883Z,12.40
2023-01-03T21:36:04.186Z,12.40
2023-01-03T21:39:46.561Z,12.40
2023-01-03T21:43:28.570Z,12.40
2023-01-03T21:47:11.109Z,12.30
2023-01-03T21:50:53.245Z,12.30
2023-01-03T21:54:38.785Z,12.30
2023-01-03T21:58:22.821Z,12.20
2023-01-03T22:02:26.017Z,12.30
2023-01-03T22:06:14.763Z,12.30
2023-01-03T22:10:15.868Z,12.20
2023-01-03T22:14:01.763Z,12.20
2023-01-03T22:17:47.413Z,12.20
2023-01-03T22:21:31.489Z,12.20
2023-01-03T22:25:22.531Z,12.20
2023-01-03T22:29:06.443Z,12.20
2023-01-03T22:32:48.631Z,12.20
2023-01-03T22:36:31.727Z,12.20
2023-01-03T22:40:15.741Z,12.20
2023-01-03T22:43:59.592Z,12.20
2023-01-03T22:47:43.747Z,12.20
2023-01-03T22:51:25.848Z,12.20
2023-01-03T22:55:08.466Z,12.30
2023-01-03T22:58:50.710Z,12.30
2023-01-03T23:02:41.417Z,12.30
2023-01-03T23:06:25.498Z,12.30
2023-01-03T23:10:08.335Z,12.30
2023-01-03T23:13:53.576Z,12.30
2023-01-03T23:17:54.075Z,12.30
2023-01-03T23:21:36.211Z,12.30
2023-01-03T23:25:18.416Z,12.30
2023-01-03T23:29:01.480Z,12.30
2023-01-03T23:32:43.478Z,12.30
2023-01-03T23:36:26.492Z,12.40
2023-01-03T23:40:10.620Z,12.40
2023-01-03T23:43:53.570Z,12.30
2023-01-03T23:47:35.497Z,12.30
2023-01-03T23:51:19.939Z,12.40
2023-01-03T23:55:06.962Z,12.30
2023-01-03T23:58:55.292Z,12.30
